sensor_id;sensor_type;location;lat;lon;timestamp;P1;durP1;ratioP1;P2;durP2;ratioP2
70457;SDS011;57919;56.194;95.716;2023-01-19T00:00:07;30.58;;;25.20;;
70457;SDS011;57919;56.194;95.716;2023-01-19T00:10:10;41.15;;;26.20;;
70457;SDS011;57919;56.194;95.716;2023-01-19T00:20:14;50.30;;;26.90;;
70457;SDS011;57919;56.194;95.716;2023-01-19T00:30:16;35.10;;;27.60;;
70457;SDS011;57919;56.194;95.716;2023-01-19T00:40:18;70.93;;;33.53;;
70457;SDS011;57919;56.194;95.716;2023-01-19T00:50:20;40.07;;;32.77;;
70457;SDS011;57919;56.194;95.716;2023-01-19T01:00:23;40.37;;;27.97;;
70457;SDS011;57919;56.194;95.716;2023-01-19T01:10:27;40.85;;;28.33;;
70457;SDS011;57919;56.194;95.716;2023-01-19T01:20:30;37.93;;;22.07;;
70457;SDS011;57919;56.194;95.716;2023-01-19T01:30:35;51.03;;;30.10;;
70457;SDS011;57919;56.194;95.716;2023-01-19T01:40:40;37.92;;;24.55;;
70457;SDS011;57919;56.194;95.716;2023-01-19T01:50:45;19.35;;;17.45;;
70457;SDS011;57919;56.194;95.716;2023-01-19T02:01:09;22.47;;;18.70;;
70457;SDS011;57919;56.194;95.716;2023-01-19T02:11:29;30.50;;;26.20;;
70457;SDS011;57919;56.194;95.716;2023-01-19T02:21:53;51.90;;;23.80;;
70457;SDS011;57919;56.194;95.716;2023-01-19T02:32:01;22.40;;;17.00;;
70457;SDS011;57919;56.194;95.716;2023-01-19T02:42:05;44.83;;;25.93;;
70457;SDS011;57919;56.194;95.716;2023-01-19T02:52:29;30.27;;;17.75;;
70457;SDS011;57919;56.194;95.716;2023-01-19T03:23:28;38.13;;;26.85;;
70457;SDS011;57919;56.194;95.716;2023-01-19T03:33:35;98.45;;;50.67;;
70457;SDS011;57919;56.194;95.716;2023-01-19T03:43:39;44.57;;;20.37;;
70457;SDS011;57919;56.194;95.716;2023-01-19T03:53:43;23.53;;;15.93;;
70457;SDS011;57919;56.194;95.716;2023-01-19T04:03:45;28.08;;;17.48;;
70457;SDS011;57919;56.194;95.716;2023-01-19T04:13:47;17.77;;;10.23;;
70457;SDS011;57919;56.194;95.716;2023-01-19T04:23:50;37.50;;;18.30;;
70457;SDS011;57919;56.194;95.716;2023-01-19T04:33:54;27.95;;;16.77;;
70457;SDS011;57919;56.194;95.716;2023-01-19T04:43:56;59.93;;;23.60;;
70457;SDS011;57919;56.194;95.716;2023-01-19T04:53:58;67.20;;;27.17;;
70457;SDS011;57919;56.194;95.716;2023-01-19T05:04:01;40.13;;;15.63;;
70457;SDS011;57919;56.194;95.716;2023-01-19T05:14:05;16.05;;;8.43;;
70457;SDS011;57919;56.194;95.716;2023-01-19T05:24:07;19.17;;;11.70;;
70457;SDS011;57919;56.194;95.716;2023-01-19T05:34:09;68.07;;;29.73;;
70457;SDS011;57919;56.194;95.716;2023-01-19T05:50:57;15.85;;;13.98;;
70457;SDS011;57919;56.194;95.716;2023-01-19T06:01:03;7.50;;;2.88;;
70457;SDS011;57919;56.194;95.716;2023-01-19T06:11:07;10.00;;;5.83;;
70457;SDS011;57919;56.194;95.716;2023-01-19T06:21:09;8.27;;;5.03;;
70457;SDS011;57919;56.194;95.716;2023-01-19T06:31:12;8.73;;;8.07;;
70457;SDS011;57919;56.194;95.716;2023-01-19T06:41:14;9.60;;;4.73;;
70457;SDS011;57919;56.194;95.716;2023-01-19T06:51:16;15.43;;;8.40;;
70457;SDS011;57919;56.194;95.716;2023-01-19T07:01:19;9.50;;;5.40;;
70457;SDS011;57919;56.194;95.716;2023-01-19T07:11:21;43.93;;;26.20;;
70457;SDS011;57919;56.194;95.716;2023-01-19T07:21:23;34.93;;;11.60;;
70457;SDS011;57919;56.194;95.716;2023-01-19T07:31:25;21.08;;;9.88;;
70457;SDS011;57919;56.194;95.716;2023-01-19T07:41:27;9.23;;;5.38;;
70457;SDS011;57919;56.194;95.716;2023-01-19T07:51:29;5.00;;;4.60;;
70457;SDS011;57919;56.194;95.716;2023-01-19T08:01:31;5.60;;;3.83;;
70457;SDS011;57919;56.194;95.716;2023-01-19T08:11:33;14.95;;;5.78;;
70457;SDS011;57919;56.194;95.716;2023-01-19T08:21:35;18.53;;;9.17;;
70457;SDS011;57919;56.194;95.716;2023-01-19T08:31:39;19.13;;;10.57;;
70457;SDS011;57919;56.194;95.716;2023-01-19T08:41:42;16.35;;;13.00;;
70457;SDS011;57919;56.194;95.716;2023-01-19T08:51:44;17.63;;;10.37;;
70457;SDS011;57919;56.194;95.716;2023-01-19T09:01:47;22.53;;;20.53;;
70457;SDS011;57919;56.194;95.716;2023-01-19T09:11:49;12.60;;;7.63;;
70457;SDS011;57919;56.194;95.716;2023-01-19T09:21:52;19.08;;;17.17;;
70457;SDS011;57919;56.194;95.716;2023-01-19T09:31:55;30.70;;;20.93;;
70457;SDS011;57919;56.194;95.716;2023-01-19T09:42:21;7.60;;;5.87;;
70457;SDS011;57919;56.194;95.716;2023-01-19T09:52:20;33.60;;;19.80;;
70457;SDS011;57919;56.194;95.716;2023-01-19T10:02:35;22.83;;;10.97;;
70457;SDS011;57919;56.194;95.716;2023-01-19T10:12:46;11.73;;;8.13;;
70457;SDS011;57919;56.194;95.716;2023-01-19T10:22:58;22.73;;;17.75;;
70457;SDS011;57919;56.194;95.716;2023-01-19T10:33:02;31.73;;;17.33;;
70457;SDS011;57919;56.194;95.716;2023-01-19T10:53:42;6.45;;;5.75;;
70457;SDS011;57919;56.194;95.716;2023-01-19T11:03:55;17.23;;;4.25;;
70457;SDS011;57919;56.194;95.716;2023-01-19T11:14:12;6.47;;;5.77;;
70457;SDS011;57919;56.194;95.716;2023-01-19T11:24:17;9.37;;;8.20;;
70457;SDS011;57919;56.194;95.716;2023-01-19T11:34:31;50.83;;;27.95;;
70457;SDS011;57919;56.194;95.716;2023-01-19T11:44:35;14.73;;;10.00;;
70457;SDS011;57919;56.194;95.716;2023-01-19T12:05:32;22.02;;;8.93;;
70457;SDS011;57919;56.194;95.716;2023-01-19T12:15:37;17.73;;;9.00;;
70457;SDS011;57919;56.194;95.716;2023-01-19T12:35:56;17.27;;;7.43;;
70457;SDS011;57919;56.194;95.716;2023-01-19T12:46:26;28.27;;;17.83;;
70457;SDS011;57919;56.194;95.716;2023-01-19T12:56:31;18.30;;;10.93;;
70457;SDS011;57919;56.194;95.716;2023-01-19T13:16:56;13.27;;;10.90;;
70457;SDS011;57919;56.194;95.716;2023-01-19T13:27:01;11.97;;;7.43;;
70457;SDS011;57919;56.194;95.716;2023-01-19T13:37:05;16.27;;;6.87;;
70457;SDS011;57919;56.194;95.716;2023-01-19T13:47:20;10.32;;;6.60;;
70457;SDS011;57919;56.194;95.716;2023-01-19T13:57:38;18.20;;;13.97;;
70457;SDS011;57919;56.194;95.716;2023-01-19T14:07:42;8.97;;;4.53;;
70457;SDS011;57919;56.194;95.716;2023-01-19T14:17:44;12.65;;;6.43;;
70457;SDS011;57919;56.194;95.716;2023-01-19T14:38:35;8.30;;;6.70;;
70457;SDS011;57919;56.194;95.716;2023-01-19T14:48:44;16.60;;;7.93;;
70457;SDS011;57919;56.194;95.716;2023-01-19T14:58:47;7.45;;;4.05;;
70457;SDS011;57919;56.194;95.716;2023-01-19T15:08:49;32.20;;;7.47;;
70457;SDS011;57919;56.194;95.716;2023-01-19T15:18:53;6.23;;;5.60;;
70457;SDS011;57919;56.194;95.716;2023-01-19T15:28:55;12.65;;;6.15;;
70457;SDS011;57919;56.194;95.716;2023-01-19T15:38:57;15.33;;;6.33;;
70457;SDS011;57919;56.194;95.716;2023-01-19T15:49:01;8.77;;;3.97;;
70457;SDS011;57919;56.194;95.716;2023-01-19T15:59:03;15.18;;;6.43;;
70457;SDS011;57919;56.194;95.716;2023-01-19T16:09:05;12.15;;;8.15;;
70457;SDS011;57919;56.194;95.716;2023-01-19T16:19:08;29.37;;;8.07;;
70457;SDS011;57919;56.194;95.716;2023-01-19T16:29:09;8.67;;;5.47;;
70457;SDS011;57919;56.194;95.716;2023-01-19T16:39:12;9.90;;;3.20;;
70457;SDS011;57919;56.194;95.716;2023-01-19T16:49:19;20.97;;;13.70;;
70457;SDS011;57919;56.194;95.716;2023-01-19T16:59:23;24.80;;;6.43;;
70457;SDS011;57919;56.194;95.716;2023-01-19T17:09:27;5.97;;;2.05;;
70457;SDS011;57919;56.194;95.716;2023-01-19T17:19:29;3.10;;;2.10;;
70457;SDS011;57919;56.194;95.716;2023-01-19T17:29:31;14.10;;;9.00;;
70457;SDS011;57919;56.194;95.716;2023-01-19T17:39:33;5.30;;;3.33;;
70457;SDS011;57919;56.194;95.716;2023-01-19T17:49:35;8.15;;;4.50;;
70457;SDS011;57919;56.194;95.716;2023-01-19T17:59:37;6.80;;;3.43;;
70457;SDS011;57919;56.194;95.716;2023-01-19T18:09:41;4.43;;;1.50;;
70457;SDS011;57919;56.194;95.716;2023-01-19T18:19:43;19.65;;;5.57;;
70457;SDS011;57919;56.194;95.716;2023-01-19T18:29:45;3.20;;;2.63;;
70457;SDS011;57919;56.194;95.716;2023-01-19T18:39:47;5.00;;;3.50;;
70457;SDS011;57919;56.194;95.716;2023-01-19T18:49:49;8.88;;;5.07;;
70457;SDS011;57919;56.194;95.716;2023-01-19T18:59:51;3.83;;;2.87;;
70457;SDS011;57919;56.194;95.716;2023-01-19T19:09:53;1.47;;;0.83;;
70457;SDS011;57919;56.194;95.716;2023-01-19T19:19:55;8.48;;;3.00;;
70457;SDS011;57919;56.194;95.716;2023-01-19T19:29:56;3.97;;;3.10;;
70457;SDS011;57919;56.194;95.716;2023-01-19T19:39:58;4.23;;;2.40;;
70457;SDS011;57919;56.194;95.716;2023-01-19T19:50:01;2.10;;;1.53;;
70457;SDS011;57919;56.194;95.716;2023-01-19T20:00:03;1.25;;;0.77;;
70457;SDS011;57919;56.194;95.716;2023-01-19T20:10:10;5.50;;;3.10;;
70457;SDS011;57919;56.194;95.716;2023-01-19T20:20:13;5.73;;;2.00;;
70457;SDS011;57919;56.194;95.716;2023-01-19T20:30:15;3.78;;;2.22;;
70457;SDS011;57919;56.194;95.716;2023-01-19T20:40:17;19.13;;;3.83;;
70457;SDS011;57919;56.194;95.716;2023-01-19T20:50:19;7.13;;;3.10;;
70457;SDS011;57919;56.194;95.716;2023-01-19T21:00:21;5.90;;;2.28;;
70457;SDS011;57919;56.194;95.716;2023-01-19T21:10:23;2.58;;;2.08;;
70457;SDS011;57919;56.194;95.716;2023-01-19T21:20:27;7.70;;;2.50;;
70457;SDS011;57919;56.194;95.716;2023-01-19T21:30:34;13.03;;;5.23;;
70457;SDS011;57919;56.194;95.716;2023-01-19T21:40:36;15.18;;;6.40;;
70457;SDS011;57919;56.194;95.716;2023-01-19T21:50:38;14.20;;;5.93;;
70457;SDS011;57919;56.194;95.716;2023-01-19T22:00:40;12.37;;;6.27;;
70457;SDS011;57919;56.194;95.716;2023-01-19T22:10:42;13.68;;;6.57;;
70457;SDS011;57919;56.194;95.716;2023-01-19T22:20:44;20.07;;;6.20;;
70457;SDS011;57919;56.194;95.716;2023-01-19T22:30:46;10.10;;;5.83;;
70457;SDS011;57919;56.194;95.716;2023-01-19T22:40:48;18.95;;;8.05;;
70457;SDS011;57919;56.194;95.716;2023-01-19T22:50:54;10.68;;;5.22;;
70457;SDS011;57919;56.194;95.716;2023-01-19T23:00:57;28.97;;;12.87;;
70457;SDS011;57919;56.194;95.716;2023-01-19T23:11:06;18.33;;;7.17;;
70457;SDS011;57919;56.194;95.716;2023-01-19T23:21:14;19.05;;;10.35;;
70457;SDS011;57919;56.194;95.716;2023-01-19T23:31:18;17.90;;;8.63;;
70457;SDS011;57919;56.194;95.716;2023-01-19T23:41:23;15.47;;;7.97;;
70457;SDS011;57919;56.194;95.716;2023-01-19T23:51:27;23.42;;;11.85;;
